sensor_id;sensor_type;location;lat;lon;timestamp;pressure;altitude;pressure_sealevel;temperature;humidity
60611;BME280;46439;51.164;13.572;2024-01-07T00:01:40;100127.13;;;1.52;0.00
60611;BME280;46439;51.164;13.572;2024-01-07T00:04:14;100126.11;;;1.53;0.00
60611;BME280;46439;51.164;13.572;2024-01-07T00:06:42;100129.38;;;1.55;0.00
60611;BME280;46439;51.164;13.572;2024-01-07T00:09:12;100126.78;;;1.56;0.00
60611;BME280;46439;51.164;13.572;2024-01-07T00:11:42;100125.42;;;1.55;0.00
60611;BME280;46439;51.164;13.572;2024-01-07T00:14:10;100129.98;;;1.54;0.00
60611;BME280;46439;51.164;13.572;2024-01-07T00:16:38;100134.55;;;1.59;0.00
60611;BME280;46439;51.164;13.572;2024-01-07T00:19:07;100140.00;;;1.58;0.00
60611;BME280;46439;51.164;13.572;2024-01-07T00:21:36;100147.58;;;1.53;0.00
60611;BME280;46439;51.164;13.572;2024-01-07T00:24:05;100141.70;;;1.56;0.00
60611;BME280;46439;51.164;13.572;2024-01-07T00:26:33;100147.18;;;1.59;0.00
60611;BME280;46439;51.164;13.572;2024-01-07T00:29:02;100148.69;;;1.55;0.00
60611;BME280;46439;51.164;13.572;2024-01-07T00:31:30;100151.45;;;1.47;0.00
60611;BME280;46439;51.164;13.572;2024-01-07T00:33:59;100147.63;;;1.34;0.00
60611;BME280;46439;51.164;13.572;2024-01-07T00:36:27;100150.67;;;1.28;0.00
60611;BME280;46439;51.164;13.572;2024-01-07T00:38:56;100147.47;;;1.26;0.00
60611;BME280;46439;51.164;13.572;2024-01-07T00:41:24;100149.47;;;1.33;0.00
60611;BME280;46439;51.164;13.572;2024-01-07T00:43:52;100155.77;;;1.32;0.00
60611;BME280;46439;51.164;13.572;2024-01-07T00:46:20;100156.49;;;1.22;0.00
60611;BME280;46439;51.164;13.572;2024-01-07T00:48:49;100159.27;;;1.20;0.00
60611;BME280;46439;51.164;13.572;2024-01-07T00:51:17;100157.36;;;1.20;0.00
60611;BME280;46439;51.164;13.572;2024-01-07T00:53:45;100159.13;;;1.27;0.00
60611;BME280;46439;51.164;13.572;2024-01-07T00:56:13;100163.48;;;1.28;0.00
60611;BME280;46439;51.164;13.572;2024-01-07T00:58:41;100164.77;;;1.29;0.00
60611;BME280;46439;51.164;13.572;2024-01-07T01:01:09;100170.52;;;1.33;0.00
60611;BME280;46439;51.164;13.572;2024-01-07T01:03:37;100175.52;;;1.43;0.00
60611;BME280;46439;51.164;13.572;2024-01-07T01:06:06;100178.34;;;1.47;0.00
60611;BME280;46439;51.164;13.572;2024-01-07T01:08:34;100180.00;;;1.39;0.00
60611;BME280;46439;51.164;13.572;2024-01-07T01:11:02;100185.10;;;1.33;0.00
60611;BME280;46439;51.164;13.572;2024-01-07T01:13:30;100183.95;;;1.36;0.00
60611;BME280;46439;51.164;13.572;2024-01-07T01:15:58;100186.65;;;1.45;0.00
60611;BME280;46439;51.164;13.572;2024-01-07T01:18:26;100189.17;;;1.54;0.00
60611;BME280;46439;51.164;13.572;2024-01-07T01:20:55;100191.02;;;1.61;0.00
60611;BME280;46439;51.164;13.572;2024-01-07T01:23:23;100195.02;;;1.59;0.00
60611;BME280;46439;51.164;13.572;2024-01-07T01:25:51;100194.63;;;1.55;0.00
60611;BME280;46439;51.164;13.572;2024-01-07T01:28:19;100198.64;;;1.49;0.00
60611;BME280;46439;51.164;13.572;2024-01-07T01:30:47;100196.92;;;1.43;0.00
60611;BME280;46439;51.164;13.572;2024-01-07T01:33:15;100194.16;;;1.35;0.00
60611;BME280;46439;51.164;13.572;2024-01-07T01:35:43;100197.14;;;1.31;0.00
60611;BME280;46439;51.164;13.572;2024-01-07T01:38:12;100194.09;;;1.24;0.00
60611;BME280;46439;51.164;13.572;2024-01-07T01:40:40;100196.89;;;1.17;0.00
60611;BME280;46439;51.164;13.572;2024-01-07T01:43:08;100197.65;;;1.09;0.00
60611;BME280;46439;51.164;13.572;2024-01-07T01:45:36;100197.62;;;1.10;0.00
60611;BME280;46439;51.164;13.572;2024-01-07T01:48:07;100199.67;;;1.18;0.00
60611;BME280;46439;51.164;13.572;2024-01-07T01:50:35;100203.60;;;1.20;0.00
60611;BME280;46439;51.164;13.572;2024-01-07T01:53:03;100205.66;;;1.23;0.00
60611;BME280;46439;51.164;13.572;2024-01-07T01:55:32;100209.47;;;1.31;0.00
60611;BME280;46439;51.164;13.572;2024-01-07T01:58:02;100212.88;;;1.31;0.00
60611;BME280;46439;51.164;13.572;2024-01-07T02:00:31;100214.34;;;1.28;0.00
60611;BME280;46439;51.164;13.572;2024-01-07T02:03:00;100211.28;;;1.33;0.00
60611;BME280;46439;51.164;13.572;2024-01-07T02:05:29;100215.70;;;1.37;0.00
60611;BME280;46439;51.164;13.572;2024-01-07T02:07:57;100218.95;;;1.41;0.00
60611;BME280;46439;51.164;13.572;2024-01-07T02:10:26;100222.86;;;1.50;0.00
60611;BME280;46439;51.164;13.572;2024-01-07T02:12:55;100225.25;;;1.56;0.00
60611;BME280;46439;51.164;13.572;2024-01-07T02:15:25;100226.41;;;1.57;0.00
60611;BME280;46439;51.164;13.572;2024-01-07T02:17:53;100228.31;;;1.60;0.00
60611;BME280;46439;51.164;13.572;2024-01-07T02:20:21;100232.64;;;1.52;0.00
60611;BME280;46439;51.164;13.572;2024-01-07T02:22:49;100228.66;;;1.48;0.00
60611;BME280;46439;51.164;13.572;2024-01-07T02:25:17;100233.81;;;1.43;0.00
60611;BME280;46439;51.164;13.572;2024-01-07T02:27:46;100236.13;;;1.33;0.00
60611;BME280;46439;51.164;13.572;2024-01-07T02:30:14;100237.77;;;1.25;0.00
60611;BME280;46439;51.164;13.572;2024-01-07T02:32:42;100236.66;;;1.17;0.00
60611;BME280;46439;51.164;13.572;2024-01-07T02:35:10;100237.94;;;1.06;0.00
60611;BME280;46439;51.164;13.572;2024-01-07T02:37:38;100239.92;;;0.99;0.00
60611;BME280;46439;51.164;13.572;2024-01-07T02:40:08;100239.52;;;1.01;0.00
60611;BME280;46439;51.164;13.572;2024-01-07T02:42:37;100245.30;;;1.07;0.00
60611;BME280;46439;51.164;13.572;2024-01-07T02:45:06;100247.77;;;1.10;0.00
60611;BME280;46439;51.164;13.572;2024-01-07T02:47:34;100257.27;;;1.16;0.00
60611;BME280;46439;51.164;13.572;2024-01-07T02:50:03;100259.48;;;1.17;0.00
60611;BME280;46439;51.164;13.572;2024-01-07T02:52:31;100259.38;;;1.09;0.00
60611;BME280;46439;51.164;13.572;2024-01-07T02:55:00;100260.65;;;1.06;0.00
60611;BME280;46439;51.164;13.572;2024-01-07T02:57:29;100260.98;;;1.04;0.00
60611;BME280;46439;51.164;13.572;2024-01-07T02:59:57;100264.41;;;1.07;0.00
60611;BME280;46439;51.164;13.572;2024-01-07T03:02:25;100267.21;;;1.03;0.00
60611;BME280;46439;51.164;13.572;2024-01-07T03:04:53;100263.84;;;0.81;0.00
60611;BME280;46439;51.164;13.572;2024-01-07T03:07:21;100263.30;;;0.71;0.00
60611;BME280;46439;51.164;13.572;2024-01-07T03:09:50;100266.67;;;0.68;0.00
60611;BME280;46439;51.164;13.572;2024-01-07T03:12:19;100264.59;;;0.67;0.00
60611;BME280;46439;51.164;13.572;2024-01-07T03:14:47;100264.81;;;0.67;0.00
60611;BME280;46439;51.164;13.572;2024-01-07T03:17:15;100273.01;;;0.71;0.00
60611;BME280;46439;51.164;13.572;2024-01-07T03:19:45;100274.76;;;0.71;0.00
60611;BME280;46439;51.164;13.572;2024-01-07T03:22:13;100271.84;;;0.70;0.00
60611;BME280;46439;51.164;13.572;2024-01-07T03:24:42;100272.11;;;0.71;0.00
60611;BME280;46439;51.164;13.572;2024-01-07T03:27:10;100274.34;;;0.72;0.00
60611;BME280;46439;51.164;13.572;2024-01-07T03:29:38;100273.42;;;0.75;0.00
60611;BME280;46439;51.164;13.572;2024-01-07T03:32:08;100273.65;;;0.80;0.00
60611;BME280;46439;51.164;13.572;2024-01-07T03:34:36;100276.02;;;0.79;0.00
60611;BME280;46439;51.164;13.572;2024-01-07T03:37:04;100278.34;;;0.71;0.00
60611;BME280;46439;51.164;13.572;2024-01-07T03:39:34;100278.14;;;0.64;0.00
60611;BME280;46439;51.164;13.572;2024-01-07T03:42:02;100278.84;;;0.59;0.00
60611;BME280;46439;51.164;13.572;2024-01-07T03:44:30;100276.30;;;0.50;0.00
60611;BME280;46439;51.164;13.572;2024-01-07T03:46:58;100277.81;;;0.43;0.00
60611;BME280;46439;51.164;13.572;2024-01-07T03:49:26;100279.05;;;0.43;0.00
60611;BME280;46439;51.164;13.572;2024-01-07T03:51:54;100282.53;;;0.44;0.00
60611;BME280;46439;51.164;13.572;2024-01-07T03:54:22;100282.84;;;0.42;0.00
60611;BME280;46439;51.164;13.572;2024-01-07T03:56:51;100285.16;;;0.39;0.00
60611;BME280;46439;51.164;13.572;2024-01-07T03:59:19;100289.45;;;0.41;0.00
60611;BME280;46439;51.164;13.572;2024-01-07T04:01:47;100288.83;;;0.42;0.00
60611;BME280;46439;51.164;13.572;2024-01-07T04:04:15;100292.74;;;0.47;0.00
60611;BME280;46439;51.164;13.572;2024-01-07T04:06:44;100291.81;;;0.53;0.00
60611;BME280;46439;51.164;13.572;2024-01-07T04:09:12;100295.86;;;0.48;0.00
60611;BME280;46439;51.164;13.572;2024-01-07T04:11:42;100300.94;;;0.38;0.00
60611;BME280;46439;51.164;13.572;2024-01-07T04:14:13;100302.92;;;0.48;0.00
60611;BME280;46439;51.164;13.572;2024-01-07T04:16:41;100305.95;;;0.46;0.00
60611;BME280;46439;51.164;13.572;2024-01-07T04:19:09;100301.34;;;0.43;0.00
60611;BME280;46439;51.164;13.572;2024-01-07T04:21:37;100305.71;;;0.36;0.00
60611;BME280;46439;51.164;13.572;2024-01-07T04:24:06;100305.73;;;0.31;0.00
60611;BME280;46439;51.164;13.572;2024-01-07T04:26:34;100308.83;;;0.24;0.00
60611;BME280;46439;51.164;13.572;2024-01-07T04:29:02;100306.48;;;0.19;0.00
60611;BME280;46439;51.164;13.572;2024-01-07T04:31:30;100310.42;;;0.18;0.00
60611;BME280;46439;51.164;13.572;2024-01-07T04:33:58;100313.59;;;0.22;0.00
60611;BME280;46439;51.164;13.572;2024-01-07T04:36:26;100314.20;;;0.23;0.00
60611;BME280;46439;51.164;13.572;2024-01-07T04:38:54;100315.73;;;0.27;0.00
60611;BME280;46439;51.164;13.572;2024-01-07T04:41:24;100323.02;;;0.32;0.00
60611;BME280;46439;51.164;13.572;2024-01-07T04:43:52;100322.59;;;0.38;0.00
60611;BME280;46439;51.164;13.572;2024-01-07T04:46:20;100323.82;;;0.43;0.00
60611;BME280;46439;51.164;13.572;2024-01-07T04:48:48;100331.25;;;0.43;0.00
60611;BME280;46439;51.164;13.572;2024-01-07T04:51:16;100335.45;;;0.36;0.00
60611;BME280;46439;51.164;13.572;2024-01-07T04:53:45;100335.83;;;0.36;0.00
60611;BME280;46439;51.164;13.572;2024-01-07T04:56:13;100342.12;;;0.37;0.00
60611;BME280;46439;51.164;13.572;2024-01-07T04:58:42;100345.50;;;0.39;0.00
60611;BME280;46439;51.164;13.572;2024-01-07T05:01:10;100341.42;;;0.34;0.00
60611;BME280;46439;51.164;13.572;2024-01-07T05:03:38;100345.95;;;0.25;0.00
60611;BME280;46439;51.164;13.572;2024-01-07T05:06:09;100349.02;;;0.29;0.00
60611;BME280;46439;51.164;13.572;2024-01-07T05:08:39;100353.36;;;0.25;0.00
60611;BME280;46439;51.164;13.572;2024-01-07T05:11:08;100355.77;;;0.26;0.00
60611;BME280;46439;51.164;13.572;2024-01-07T05:13:37;100355.20;;;0.19;0.00
60611;BME280;46439;51.164;13.572;2024-01-07T05:16:06;100362.98;;;0.11;0.00
60611;BME280;46439;51.164;13.572;2024-01-07T05:18:34;100359.10;;;0.05;0.00
60611;BME280;46439;51.164;13.572;2024-01-07T05:21:02;100359.06;;;0.06;0.00
60611;BME280;46439;51.164;13.572;2024-01-07T05:23:33;100362.21;;;0.01;0.00
60611;BME280;46439;51.164;13.572;2024-01-07T05:26:02;100360.94;;;-0.04;0.00
60611;BME280;46439;51.164;13.572;2024-01-07T05:28:30;100364.27;;;-0.06;0.00
60611;BME280;46439;51.164;13.572;2024-01-07T05:30:58;100363.59;;;-0.04;0.00
60611;BME280;46439;51.164;13.572;2024-01-07T05:33:26;100368.56;;;0.01;0.00
60611;BME280;46439;51.164;13.572;2024-01-07T05:35:54;100370.75;;;0.01;0.00
60611;BME280;46439;51.164;13.572;2024-01-07T05:38:22;100371.66;;;-0.03;0.00
60611;BME280;46439;51.164;13.572;2024-01-07T05:40:50;100370.49;;;-0.09;0.00
60611;BME280;46439;51.164;13.572;2024-01-07T05:43:18;100374.11;;;-0.13;0.00
60611;BME280;46439;51.164;13.572;2024-01-07T05:45:46;100375.40;;;-0.16;0.00
60611;BME280;46439;51.164;13.572;2024-01-07T05:48:14;100377.30;;;-0.33;0.00
60611;BME280;46439;51.164;13.572;2024-01-07T05:50:42;100376.95;;;-0.41;0.00
60611;BME280;46439;51.164;13.572;2024-01-07T05:53:10;100378.77;;;-0.39;0.00
60611;BME280;46439;51.164;13.572;2024-01-07T05:55:38;100382.45;;;-0.38;0.00
60611;BME280;46439;51.164;13.572;2024-01-07T05:58:07;100384.23;;;-0.39;0.00
60611;BME280;46439;51.164;13.572;2024-01-07T06:00:35;100391.40;;;-0.40;0.00
60611;BME280;46439;51.164;13.572;2024-01-07T06:03:03;100396.42;;;-0.44;0.00
60611;BME280;46439;51.164;13.572;2024-01-07T06:05:32;100398.30;;;-0.46;0.00
60611;BME280;46439;51.164;13.572;2024-01-07T06:08:00;100406.81;;;-0.44;0.00
60611;BME280;46439;51.164;13.572;2024-01-07T06:10:28;100408.15;;;-0.31;0.00
60611;BME280;46439;51.164;13.572;2024-01-07T06:12:56;100412.75;;;-0.28;0.00
60611;BME280;46439;51.164;13.572;2024-01-07T06:15:24;100412.59;;;-0.29;0.00
60611;BME280;46439;51.164;13.572;2024-01-07T06:17:52;100417.69;;;-0.25;0.00
60611;BME280;46439;51.164;13.572;2024-01-07T06:20:20;100422.07;;;-0.22;0.00
60611;BME280;46439;51.164;13.572;2024-01-07T06:22:48;100422.05;;;-0.22;0.00
60611;BME280;46439;51.164;13.572;2024-01-07T06:25:17;100426.46;;;-0.22;0.00
60611;BME280;46439;51.164;13.572;2024-01-07T06:27:45;100427.43;;;-0.23;0.00
60611;BME280;46439;51.164;13.572;2024-01-07T06:30:14;100433.20;;;-0.22;0.00
60611;BME280;46439;51.164;13.572;2024-01-07T06:32:43;100438.04;;;-0.17;0.00
60611;BME280;46439;51.164;13.572;2024-01-07T06:35:11;100437.23;;;-0.15;0.00
60611;BME280;46439;51.164;13.572;2024-01-07T06:37:39;100439.38;;;-0.19;0.00
60611;BME280;46439;51.164;13.572;2024-01-07T06:40:09;100440.22;;;-0.15;0.00
60611;BME280;46439;51.164;13.572;2024-01-07T06:42:39;100445.16;;;-0.07;0.00
60611;BME280;46439;51.164;13.572;2024-01-07T06:45:09;100450.00;;;0.06;0.00
60611;BME280;46439;51.164;13.572;2024-01-07T06:47:37;100454.98;;;0.08;0.00
60611;BME280;46439;51.164;13.572;2024-01-07T06:50:07;100458.55;;;0.08;0.00
60611;BME280;46439;51.164;13.572;2024-01-07T06:52:35;100463.63;;;0.14;0.00
60611;BME280;46439;51.164;13.572;2024-01-07T06:55:04;100467.07;;;0.21;0.00
60611;BME280;46439;51.164;13.572;2024-01-07T06:57:32;100468.65;;;0.22;0.00
60611;BME280;46439;51.164;13.572;2024-01-07T07:00:00;100474.20;;;0.12;0.00
60611;BME280;46439;51.164;13.572;2024-01-07T07:02:28;100474.05;;;0.09;0.00
60611;BME280;46439;51.164;13.572;2024-01-07T07:04:56;100477.05;;;0.04;0.00
60611;BME280;46439;51.164;13.572;2024-01-07T07:07:24;100478.79;;;-0.01;0.00
60611;BME280;46439;51.164;13.572;2024-01-07T07:09:52;100481.69;;;-0.08;0.00
60611;BME280;46439;51.164;13.572;2024-01-07T07:12:21;100485.83;;;-0.12;0.00
60611;BME280;46439;51.164;13.572;2024-01-07T07:14:49;100486.83;;;-0.14;0.00
60611;BME280;46439;51.164;13.572;2024-01-07T07:17:17;100488.56;;;-0.19;0.00
60611;BME280;46439;51.164;13.572;2024-01-07T07:19:45;100488.68;;;-0.21;0.00
60611;BME280;46439;51.164;13.572;2024-01-07T07:22:13;100492.27;;;-0.18;0.00
60611;BME280;46439;51.164;13.572;2024-01-07T07:24:43;100499.96;;;-0.17;0.00
60611;BME280;46439;51.164;13.572;2024-01-07T07:27:11;100501.74;;;-0.20;0.00
60611;BME280;46439;51.164;13.572;2024-01-07T07:29:39;100503.14;;;-0.28;0.00
60611;BME280;46439;51.164;13.572;2024-01-07T07:32:08;100507.21;;;-0.34;0.00
60611;BME280;46439;51.164;13.572;2024-01-07T07:34:36;100512.12;;;-0.36;0.00
60611;BME280;46439;51.164;13.572;2024-01-07T07:37:05;100513.71;;;-0.39;0.00
60611;BME280;46439;51.164;13.572;2024-01-07T07:39:33;100516.86;;;-0.42;0.00
60611;BME280;46439;51.164;13.572;2024-01-07T07:42:01;100518.63;;;-0.39;0.00
60611;BME280;46439;51.164;13.572;2024-01-07T07:44:29;100523.27;;;-0.39;0.00
60611;BME280;46439;51.164;13.572;2024-01-07T07:46:57;100526.74;;;-0.47;0.00
60611;BME280;46439;51.164;13.572;2024-01-07T07:49:25;100533.31;;;-0.45;0.00
60611;BME280;46439;51.164;13.572;2024-01-07T07:51:53;100536.04;;;-0.43;0.00
60611;BME280;46439;51.164;13.572;2024-01-07T07:54:21;100539.11;;;-0.35;0.00
60611;BME280;46439;51.164;13.572;2024-01-07T07:56:49;100544.29;;;-0.30;0.00
60611;BME280;46439;51.164;13.572;2024-01-07T07:59:17;100547.81;;;-0.27;0.00
60611;BME280;46439;51.164;13.572;2024-01-07T08:01:46;100548.67;;;-0.24;0.00
60611;BME280;46439;51.164;13.572;2024-01-07T08:04:14;100552.33;;;-0.17;0.00
60611;BME280;46439;51.164;13.572;2024-01-07T08:06:42;100555.14;;;-0.26;0.00
60611;BME280;46439;51.164;13.572;2024-01-07T08:09:13;100553.80;;;-0.38;0.00
60611;BME280;46439;51.164;13.572;2024-01-07T08:11:41;100552.08;;;-0.45;0.00
60611;BME280;46439;51.164;13.572;2024-01-07T08:14:09;100553.26;;;-0.47;0.00
60611;BME280;46439;51.164;13.572;2024-01-07T08:16:37;100556.54;;;-0.49;0.00
60611;BME280;46439;51.164;13.572;2024-01-07T08:19:05;100555.59;;;-0.47;0.00
60611;BME280;46439;51.164;13.572;2024-01-07T08:21:33;100563.20;;;-0.53;0.00
60611;BME280;46439;51.164;13.572;2024-01-07T08:24:01;100566.54;;;-0.59;0.00
60611;BME280;46439;51.164;13.572;2024-01-07T08:26:38;100571.09;;;-0.61;0.00
60611;BME280;46439;51.164;13.572;2024-01-07T08:29:06;100572.42;;;-0.60;0.00
60611;BME280;46439;51.164;13.572;2024-01-07T08:31:34;100577.42;;;-0.58;0.00
60611;BME280;46439;51.164;13.572;2024-01-07T08:34:02;100583.66;;;-0.59;0.00
60611;BME280;46439;51.164;13.572;2024-01-07T08:36:30;100583.28;;;-0.55;0.00
60611;BME280;46439;51.164;13.572;2024-01-07T08:38:58;100591.20;;;-0.49;0.00
60611;BME280;46439;51.164;13.572;2024-01-07T08:41:26;100589.20;;;-0.45;0.00
60611;BME280;46439;51.164;13.572;2024-01-07T08:43:54;100590.81;;;-0.39;0.00
60611;BME280;46439;51.164;13.572;2024-01-07T08:46:22;100591.52;;;-0.42;0.00
60611;BME280;46439;51.164;13.572;2024-01-07T08:48:51;100594.59;;;-0.46;0.00
60611;BME280;46439;51.164;13.572;2024-01-07T08:51:19;100593.72;;;-0.49;0.00
60611;BME280;46439;51.164;13.572;2024-01-07T08:53:47;100597.23;;;-0.52;0.00
60611;BME280;46439;51.164;13.572;2024-01-07T08:56:15;100606.84;;;-0.53;0.00
60611;BME280;46439;51.164;13.572;2024-01-07T08:58:43;100605.55;;;-0.55;0.00
60611;BME280;46439;51.164;13.572;2024-01-07T09:01:11;100607.38;;;-0.56;0.00
60611;BME280;46439;51.164;13.572;2024-01-07T09:03:42;100607.45;;;-0.60;0.00
60611;BME280;46439;51.164;13.572;2024-01-07T09:06:10;100610.25;;;-0.60;0.00
60611;BME280;46439;51.164;13.572;2024-01-07T09:08:38;100611.20;;;-0.58;0.00
60611;BME280;46439;51.164;13.572;2024-01-07T09:11:06;100615.41;;;-0.70;0.00
60611;BME280;46439;51.164;13.572;2024-01-07T09:13:35;100617.05;;;-0.64;0.00
60611;BME280;46439;51.164;13.572;2024-01-07T09:16:03;100615.87;;;-0.56;0.00
60611;BME280;46439;51.164;13.572;2024-01-07T09:18:31;100617.52;;;-0.48;0.00
60611;BME280;46439;51.164;13.572;2024-01-07T09:20:59;100617.02;;;-0.40;0.00
60611;BME280;46439;51.164;13.572;2024-01-07T09:23:28;100621.83;;;-0.43;0.00
60611;BME280;46439;51.164;13.572;2024-01-07T09:25:56;100626.44;;;-0.46;0.00
60611;BME280;46439;51.164;13.572;2024-01-07T09:28:24;100624.48;;;-0.55;0.00
60611;BME280;46439;51.164;13.572;2024-01-07T09:30:52;100627.30;;;-0.64;0.00
60611;BME280;46439;51.164;13.572;2024-01-07T09:33:20;100630.72;;;-0.68;0.00
60611;BME280;46439;51.164;13.572;2024-01-07T09:35:51;100631.80;;;-0.69;0.00
60611;BME280;46439;51.164;13.572;2024-01-07T09:38:19;100638.73;;;-0.69;0.00
60611;BME280;46439;51.164;13.572;2024-01-07T09:40:47;100638.36;;;-0.66;0.00
60611;BME280;46439;51.164;13.572;2024-01-07T09:43:15;100645.80;;;-0.54;0.00
60611;BME280;46439;51.164;13.572;2024-01-07T09:45:47;100647.58;;;-0.48;0.00
60611;BME280;46439;51.164;13.572;2024-01-07T09:48:18;100649.11;;;-0.50;0.00
60611;BME280;46439;51.164;13.572;2024-01-07T09:50:46;100654.46;;;-0.51;0.00
60611;BME280;46439;51.164;13.572;2024-01-07T09:53:17;100653.56;;;-0.54;0.00
60611;BME280;46439;51.164;13.572;2024-01-07T09:55:55;100657.23;;;-0.50;0.00
60611;BME280;46439;51.164;13.572;2024-01-07T09:58:26;100657.39;;;-0.52;0.00
60611;BME280;46439;51.164;13.572;2024-01-07T10:00:54;100659.88;;;-0.56;0.00
60611;BME280;46439;51.164;13.572;2024-01-07T10:03:22;100657.34;;;-0.61;0.00
60611;BME280;46439;51.164;13.572;2024-01-07T10:05:50;100656.65;;;-0.58;0.00
60611;BME280;46439;51.164;13.572;2024-01-07T10:08:18;100654.20;;;-0.47;0.00
60611;BME280;46439;51.164;13.572;2024-01-07T10:10:46;100656.89;;;-0.47;0.00
60611;BME280;46439;51.164;13.572;2024-01-07T10:13:16;100658.38;;;-0.48;0.00
60611;BME280;46439;51.164;13.572;2024-01-07T10:15:44;100666.15;;;-0.48;0.00
60611;BME280;46439;51.164;13.572;2024-01-07T10:18:12;100658.95;;;-0.58;0.00
60611;BME280;46439;51.164;13.572;2024-01-07T10:20:41;100659.07;;;-0.69;0.00
60611;BME280;46439;51.164;13.572;2024-01-07T10:23:10;100659.98;;;-0.70;0.00
60611;BME280;46439;51.164;13.572;2024-01-07T10:25:38;100658.77;;;-0.67;0.00
60611;BME280;46439;51.164;13.572;2024-01-07T10:28:06;100662.71;;;-0.62;0.00
60611;BME280;46439;51.164;13.572;2024-01-07T10:30:34;100666.36;;;-0.67;0.00
60611;BME280;46439;51.164;13.572;2024-01-07T10:33:02;100668.20;;;-0.72;0.00
60611;BME280;46439;51.164;13.572;2024-01-07T10:35:34;100668.70;;;-0.80;0.00
60611;BME280;46439;51.164;13.572;2024-01-07T10:38:03;100669.48;;;-0.85;0.00
60611;BME280;46439;51.164;13.572;2024-01-07T10:40:32;100670.55;;;-0.82;0.00
60611;BME280;46439;51.164;13.572;2024-01-07T10:43:03;100675.25;;;-0.84;0.00
60611;BME280;46439;51.164;13.572;2024-01-07T10:45:32;100676.27;;;-0.80;0.00
60611;BME280;46439;51.164;13.572;2024-01-07T10:48:01;100680.34;;;-0.86;0.00
60611;BME280;46439;51.164;13.572;2024-01-07T10:50:34;100681.16;;;-0.97;0.00
60611;BME280;46439;51.164;13.572;2024-01-07T10:53:05;100678.23;;;-0.95;0.00
60611;BME280;46439;51.164;13.572;2024-01-07T10:55:37;100678.66;;;-1.00;0.00
60611;BME280;46439;51.164;13.572;2024-01-07T10:58:07;100677.44;;;-1.03;0.00
60611;BME280;46439;51.164;13.572;2024-01-07T11:00:35;100678.11;;;-1.06;0.00
60611;BME280;46439;51.164;13.572;2024-01-07T11:03:09;100676.30;;;-1.08;0.00
60611;BME280;46439;51.164;13.572;2024-01-07T11:05:47;100674.02;;;-1.08;0.00
60611;BME280;46439;51.164;13.572;2024-01-07T11:08:21;100678.31;;;-1.06;0.00
60611;BME280;46439;51.164;13.572;2024-01-07T11:10:55;100682.52;;;-1.15;0.00
60611;BME280;46439;51.164;13.572;2024-01-07T11:13:35;100682.81;;;-1.20;0.00
60611;BME280;46439;51.164;13.572;2024-01-07T11:16:05;100680.36;;;-1.18;0.00
60611;BME280;46439;51.164;13.572;2024-01-07T11:18:33;100682.69;;;-1.15;0.00
60611;BME280;46439;51.164;13.572;2024-01-07T11:21:02;100683.23;;;-1.18;0.00
60611;BME280;46439;51.164;13.572;2024-01-07T11:23:35;100684.62;;;-1.22;0.00
60611;BME280;46439;51.164;13.572;2024-01-07T11:26:05;100686.56;;;-1.24;0.00
60611;BME280;46439;51.164;13.572;2024-01-07T11:28:51;100683.80;;;-1.13;0.00
60611;BME280;46439;51.164;13.572;2024-01-07T11:31:21;100690.64;;;-0.96;0.00
60611;BME280;46439;51.164;13.572;2024-01-07T11:33:50;100685.80;;;-0.92;0.00
60611;BME280;46439;51.164;13.572;2024-01-07T11:36:19;100693.16;;;-0.87;0.00
60611;BME280;46439;51.164;13.572;2024-01-07T11:38:49;100692.21;;;-0.93;0.00
60611;BME280;46439;51.164;13.572;2024-01-07T11:41:18;100694.65;;;-0.99;0.00
60611;BME280;46439;51.164;13.572;2024-01-07T11:43:55;100694.90;;;-0.97;0.00
60611;BME280;46439;51.164;13.572;2024-01-07T11:46:23;100692.71;;;-0.89;0.00
60611;BME280;46439;51.164;13.572;2024-01-07T11:48:54;100695.36;;;-0.89;0.00
60611;BME280;46439;51.164;13.572;2024-01-07T11:51:26;100690.21;;;-0.85;0.00
60611;BME280;46439;51.164;13.572;2024-01-07T11:53:55;100690.41;;;-0.76;0.00
60611;BME280;46439;51.164;13.572;2024-01-07T11:56:23;100689.17;;;-0.76;0.00
60611;BME280;46439;51.164;13.572;2024-01-07T11:58:51;100682.61;;;-0.67;0.00
60611;BME280;46439;51.164;13.572;2024-01-07T12:01:20;100686.86;;;-0.52;0.00
60611;BME280;46439;51.164;13.572;2024-01-07T12:03:48;100690.48;;;-0.38;0.00
60611;BME280;46439;51.164;13.572;2024-01-07T12:06:18;100688.13;;;-0.31;0.00
60611;BME280;46439;51.164;13.572;2024-01-07T12:08:46;100691.94;;;-0.30;0.00
60611;BME280;46439;51.164;13.572;2024-01-07T12:11:15;100697.59;;;-0.30;0.00
60611;BME280;46439;51.164;13.572;2024-01-07T12:13:44;100705.79;;;-0.37;0.00
60611;BME280;46439;51.164;13.572;2024-01-07T12:16:13;100705.88;;;-0.51;0.00
60611;BME280;46439;51.164;13.572;2024-01-07T12:18:42;100702.61;;;-0.58;0.00
60611;BME280;46439;51.164;13.572;2024-01-07T12:21:10;100704.48;;;-0.57;0.00
60611;BME280;46439;51.164;13.572;2024-01-07T12:23:38;100703.30;;;-0.58;0.00
60611;BME280;46439;51.164;13.572;2024-01-07T12:26:10;100706.14;;;-0.58;0.00
60611;BME280;46439;51.164;13.572;2024-01-07T12:28:39;100709.48;;;-0.51;0.00
60611;BME280;46439;51.164;13.572;2024-01-07T12:31:08;100710.52;;;-0.57;0.00
60611;BME280;46439;51.164;13.572;2024-01-07T12:33:38;100713.61;;;-0.68;0.00
60611;BME280;46439;51.164;13.572;2024-01-07T12:36:08;100714.09;;;-0.76;0.00
60611;BME280;46439;51.164;13.572;2024-01-07T12:38:38;100714.87;;;-0.78;0.00
60611;BME280;46439;51.164;13.572;2024-01-07T12:41:07;100717.35;;;-0.72;0.00
60611;BME280;46439;51.164;13.572;2024-01-07T12:43:35;100720.41;;;-0.24;0.00
60611;BME280;46439;51.164;13.572;2024-01-07T12:46:03;100726.55;;;-0.11;0.00
60611;BME280;46439;51.164;13.572;2024-01-07T12:48:33;100729.35;;;-0.23;0.00
60611;BME280;46439;51.164;13.572;2024-01-07T12:51:02;100736.02;;;-0.31;0.00
60611;BME280;46439;51.164;13.572;2024-01-07T12:53:30;100735.95;;;-0.39;0.00
60611;BME280;46439;51.164;13.572;2024-01-07T12:55:58;100732.30;;;-0.36;0.00
60611;BME280;46439;51.164;13.572;2024-01-07T12:58:26;100734.77;;;-0.33;0.00
60611;BME280;46439;51.164;13.572;2024-01-07T13:00:54;100736.19;;;-0.33;0.00
60611;BME280;46439;51.164;13.572;2024-01-07T13:03:22;100737.23;;;-0.36;0.00